sensor_id;sensor_type;location;lat;lon;timestamp;temperature;humidity
21565;DHT22;10943;48.738;9.320;2022-10-16T00:01:42;20.10;99.90
21565;DHT22;10943;48.738;9.320;2022-10-16T00:04:10;20.10;99.90
21565;DHT22;10943;48.738;9.320;2022-10-16T00:06:38;20.10;99.90
21565;DHT22;10943;48.738;9.320;2022-10-16T00:09:06;20.10;99.90
21565;DHT22;10943;48.738;9.320;2022-10-16T00:11:36;20.10;99.90
21565;DHT22;10943;48.738;9.320;2022-10-16T00:14:10;20.00;99.90
21565;DHT22;10943;48.738;9.320;2022-10-16T00:16:41;20.00;99.90
21565;DHT22;10943;48.738;9.320;2022-10-16T00:19:11;20.00;99.90
21565;DHT22;10943;48.738;9.320;2022-10-16T00:21:41;19.90;99.90
21565;DHT22;10943;48.738;9.320;2022-10-16T00:24:28;20.00;99.90
21565;DHT22;10943;48.738;9.320;2022-10-16T00:26:55;19.90;99.90
21565;DHT22;10943;48.738;9.320;2022-10-16T00:29:23;19.90;99.90
21565;DHT22;10943;48.738;9.320;2022-10-16T00:31:50;19.90;99.90
21565;DHT22;10943;48.738;9.320;2022-10-16T00:34:17;19.80;99.90
21565;DHT22;10943;48.738;9.320;2022-10-16T00:36:45;19.80;99.90
21565;DHT22;10943;48.738;9.320;2022-10-16T00:39:12;19.70;99.90
21565;DHT22;10943;48.738;9.320;2022-10-16T00:41:39;19.50;99.90
21565;DHT22;10943;48.738;9.320;2022-10-16T00:47:32;19.50;99.90
21565;DHT22;10943;48.738;9.320;2022-10-16T00:50:24;19.60;99.90
21565;DHT22;10943;48.738;9.320;2022-10-16T00:52:57;19.40;99.90
21565;DHT22;10943;48.738;9.320;2022-10-16T00:55:27;19.20;99.90
21565;DHT22;10943;48.738;9.320;2022-10-16T00:57:57;19.20;99.90
21565;DHT22;10943;48.738;9.320;2022-10-16T01:00:26;19.20;99.90
21565;DHT22;10943;48.738;9.320;2022-10-16T01:02:59;19.10;99.90
21565;DHT22;10943;48.738;9.320;2022-10-16T01:05:54;19.10;99.90
21565;DHT22;10943;48.738;9.320;2022-10-16T01:09:37;19.10;99.90
21565;DHT22;10943;48.738;9.320;2022-10-16T01:12:53;19.00;99.90
21565;DHT22;10943;48.738;9.320;2022-10-16T01:15:38;18.90;99.90
21565;DHT22;10943;48.738;9.320;2022-10-16T01:21:19;18.70;99.90
21565;DHT22;10943;48.738;9.320;2022-10-16T01:27:13;18.90;99.90
21565;DHT22;10943;48.738;9.320;2022-10-16T01:30:15;18.90;99.90
21565;DHT22;10943;48.738;9.320;2022-10-16T01:32:58;18.90;99.90
21565;DHT22;10943;48.738;9.320;2022-10-16T01:35:45;18.90;99.90
21565;DHT22;10943;48.738;9.320;2022-10-16T01:38:23;19.10;99.90
21565;DHT22;10943;48.738;9.320;2022-10-16T01:44:02;19.10;99.90
21565;DHT22;10943;48.738;9.320;2022-10-16T01:46:50;19.00;99.90
21565;DHT22;10943;48.738;9.320;2022-10-16T01:49:22;19.00;99.90
21565;DHT22;10943;48.738;9.320;2022-10-16T01:51:59;19.20;99.90
21565;DHT22;10943;48.738;9.320;2022-10-16T01:54:33;19.00;99.90
21565;DHT22;10943;48.738;9.320;2022-10-16T01:57:06;19.00;99.90
21565;DHT22;10943;48.738;9.320;2022-10-16T01:59:42;19.00;99.90
21565;DHT22;10943;48.738;9.320;2022-10-16T02:02:15;19.00;99.90
21565;DHT22;10943;48.738;9.320;2022-10-16T02:04:50;18.90;99.90
21565;DHT22;10943;48.738;9.320;2022-10-16T02:07:24;19.00;99.90
21565;DHT22;10943;48.738;9.320;2022-10-16T02:09:52;19.10;99.90
21565;DHT22;10943;48.738;9.320;2022-10-16T02:12:30;19.00;99.90
21565;DHT22;10943;48.738;9.320;2022-10-16T02:15:01;18.90;99.90
21565;DHT22;10943;48.738;9.320;2022-10-16T02:17:29;18.90;99.90
21565;DHT22;10943;48.738;9.320;2022-10-16T02:19:58;18.90;99.90
21565;DHT22;10943;48.738;9.320;2022-10-16T02:25:10;18.70;99.90
21565;DHT22;10943;48.738;9.320;2022-10-16T02:30:52;18.80;99.90
21565;DHT22;10943;48.738;9.320;2022-10-16T02:33:31;19.00;99.90
21565;DHT22;10943;48.738;9.320;2022-10-16T02:36:01;18.90;99.90
21565;DHT22;10943;48.738;9.320;2022-10-16T02:38:30;19.00;99.90
21565;DHT22;10943;48.738;9.320;2022-10-16T02:40:58;19.30;99.90
21565;DHT22;10943;48.738;9.320;2022-10-16T02:43:26;19.30;99.90
21565;DHT22;10943;48.738;9.320;2022-10-16T02:45:53;19.40;99.90
21565;DHT22;10943;48.738;9.320;2022-10-16T02:48:21;19.10;99.90
21565;DHT22;10943;48.738;9.320;2022-10-16T02:50:48;19.00;99.90
21565;DHT22;10943;48.738;9.320;2022-10-16T02:53:15;18.90;99.90
21565;DHT22;10943;48.738;9.320;2022-10-16T02:55:43;18.90;99.90
21565;DHT22;10943;48.738;9.320;2022-10-16T02:58:10;18.90;99.90
21565;DHT22;10943;48.738;9.320;2022-10-16T03:00:39;18.90;99.90
21565;DHT22;10943;48.738;9.320;2022-10-16T03:03:06;18.90;99.90
21565;DHT22;10943;48.738;9.320;2022-10-16T03:05:33;18.90;99.90
21565;DHT22;10943;48.738;9.320;2022-10-16T03:08:00;18.90;99.90
21565;DHT22;10943;48.738;9.320;2022-10-16T03:10:28;19.10;99.90
21565;DHT22;10943;48.738;9.320;2022-10-16T03:12:55;19.00;99.90
21565;DHT22;10943;48.738;9.320;2022-10-16T03:15:24;19.00;99.90
21565;DHT22;10943;48.738;9.320;2022-10-16T03:17:57;18.90;99.90
21565;DHT22;10943;48.738;9.320;2022-10-16T03:20:26;18.70;99.90
21565;DHT22;10943;48.738;9.320;2022-10-16T03:22:54;18.60;99.90
21565;DHT22;10943;48.738;9.320;2022-10-16T03:25:21;18.60;99.90
21565;DHT22;10943;48.738;9.320;2022-10-16T03:27:49;18.80;99.90
21565;DHT22;10943;48.738;9.320;2022-10-16T03:30:16;18.70;99.90
21565;DHT22;10943;48.738;9.320;2022-10-16T03:32:44;18.60;99.90
21565;DHT22;10943;48.738;9.320;2022-10-16T03:35:12;18.60;99.90
21565;DHT22;10943;48.738;9.320;2022-10-16T03:37:39;18.60;99.90
21565;DHT22;10943;48.738;9.320;2022-10-16T03:40:07;18.60;99.90
21565;DHT22;10943;48.738;9.320;2022-10-16T03:42:35;18.70;99.90
21565;DHT22;10943;48.738;9.320;2022-10-16T03:45:03;18.70;99.90
21565;DHT22;10943;48.738;9.320;2022-10-16T03:47:31;18.60;99.90
21565;DHT22;10943;48.738;9.320;2022-10-16T03:50:00;18.60;99.90
21565;DHT22;10943;48.738;9.320;2022-10-16T03:52:27;18.70;99.90
21565;DHT22;10943;48.738;9.320;2022-10-16T03:54:55;18.70;99.90
21565;DHT22;10943;48.738;9.320;2022-10-16T03:57:22;18.80;99.90
21565;DHT22;10943;48.738;9.320;2022-10-16T03:59:50;18.80;99.90
21565;DHT22;10943;48.738;9.320;2022-10-16T04:02:17;18.70;99.90
21565;DHT22;10943;48.738;9.320;2022-10-16T04:04:44;18.70;99.90
21565;DHT22;10943;48.738;9.320;2022-10-16T04:07:12;18.60;99.90
21565;DHT22;10943;48.738;9.320;2022-10-16T04:09:39;18.50;99.90
21565;DHT22;10943;48.738;9.320;2022-10-16T04:12:06;18.40;99.90
21565;DHT22;10943;48.738;9.320;2022-10-16T04:14:34;18.50;99.90
21565;DHT22;10943;48.738;9.320;2022-10-16T04:17:01;18.60;99.90
21565;DHT22;10943;48.738;9.320;2022-10-16T04:19:28;18.80;99.90
21565;DHT22;10943;48.738;9.320;2022-10-16T04:21:56;18.70;99.90
21565;DHT22;10943;48.738;9.320;2022-10-16T04:24:23;18.60;99.90
21565;DHT22;10943;48.738;9.320;2022-10-16T04:26:50;18.50;99.90
21565;DHT22;10943;48.738;9.320;2022-10-16T04:29:18;18.50;99.90
21565;DHT22;10943;48.738;9.320;2022-10-16T04:31:46;18.60;99.90
21565;DHT22;10943;48.738;9.320;2022-10-16T04:34:13;18.70;99.90
21565;DHT22;10943;48.738;9.320;2022-10-16T04:36:40;18.70;99.90
21565;DHT22;10943;48.738;9.320;2022-10-16T04:39:08;18.60;99.90
21565;DHT22;10943;48.738;9.320;2022-10-16T04:41:35;18.50;99.90
21565;DHT22;10943;48.738;9.320;2022-10-16T04:44:04;18.60;99.90
21565;DHT22;10943;48.738;9.320;2022-10-16T04:46:31;18.60;99.90
21565;DHT22;10943;48.738;9.320;2022-10-16T04:49:05;18.60;99.90
21565;DHT22;10943;48.738;9.320;2022-10-16T04:51:32;18.80;99.90
21565;DHT22;10943;48.738;9.320;2022-10-16T04:54:00;18.70;99.90
21565;DHT22;10943;48.738;9.320;2022-10-16T04:56:27;18.70;99.90
21565;DHT22;10943;48.738;9.320;2022-10-16T04:58:55;18.60;99.90
21565;DHT22;10943;48.738;9.320;2022-10-16T05:01:22;18.60;99.90
21565;DHT22;10943;48.738;9.320;2022-10-16T05:03:50;18.60;99.90
21565;DHT22;10943;48.738;9.320;2022-10-16T05:06:18;18.60;99.90
21565;DHT22;10943;48.738;9.320;2022-10-16T05:08:45;18.60;99.90
21565;DHT22;10943;48.738;9.320;2022-10-16T05:11:12;18.70;99.90
21565;DHT22;10943;48.738;9.320;2022-10-16T05:13:39;18.70;99.90
21565;DHT22;10943;48.738;9.320;2022-10-16T05:16:07;18.60;99.90
21565;DHT22;10943;48.738;9.320;2022-10-16T05:18:34;18.60;99.90
21565;DHT22;10943;48.738;9.320;2022-10-16T05:21:02;18.60;99.90
21565;DHT22;10943;48.738;9.320;2022-10-16T05:23:29;18.60;99.90
21565;DHT22;10943;48.738;9.320;2022-10-16T05:25:58;18.60;99.90
21565;DHT22;10943;48.738;9.320;2022-10-16T05:28:28;18.60;99.90
21565;DHT22;10943;48.738;9.320;2022-10-16T05:30:58;18.60;99.90
21565;DHT22;10943;48.738;9.320;2022-10-16T05:33:26;18.60;99.90
21565;DHT22;10943;48.738;9.320;2022-10-16T05:35:53;18.60;99.90
21565;DHT22;10943;48.738;9.320;2022-10-16T05:38:20;18.50;99.90
21565;DHT22;10943;48.738;9.320;2022-10-16T05:40:52;18.50;99.90
21565;DHT22;10943;48.738;9.320;2022-10-16T05:43:20;18.50;99.90
21565;DHT22;10943;48.738;9.320;2022-10-16T05:46:02;18.60;99.90
21565;DHT22;10943;48.738;9.320;2022-10-16T05:48:32;18.40;99.90
21565;DHT22;10943;48.738;9.320;2022-10-16T05:51:02;18.40;99.90
21565;DHT22;10943;48.738;9.320;2022-10-16T05:53:35;18.30;99.90
21565;DHT22;10943;48.738;9.320;2022-10-16T05:56:06;18.30;99.90
21565;DHT22;10943;48.738;9.320;2022-10-16T05:58:38;18.10;99.90
21565;DHT22;10943;48.738;9.320;2022-10-16T06:01:11;18.20;99.90
21565;DHT22;10943;48.738;9.320;2022-10-16T06:03:43;18.20;99.90
21565;DHT22;10943;48.738;9.320;2022-10-16T06:06:16;18.50;99.90
21565;DHT22;10943;48.738;9.320;2022-10-16T06:08:48;18.50;99.90
21565;DHT22;10943;48.738;9.320;2022-10-16T06:11:19;18.60;99.90
21565;DHT22;10943;48.738;9.320;2022-10-16T06:13:54;18.80;99.90
21565;DHT22;10943;48.738;9.320;2022-10-16T06:16:28;18.70;99.90
21565;DHT22;10943;48.738;9.320;2022-10-16T06:18:57;19.00;99.90
21565;DHT22;10943;48.738;9.320;2022-10-16T06:21:28;19.00;99.90
21565;DHT22;10943;48.738;9.320;2022-10-16T06:23:56;18.90;99.90
21565;DHT22;10943;48.738;9.320;2022-10-16T06:26:28;19.20;99.90
21565;DHT22;10943;48.738;9.320;2022-10-16T06:28:58;19.30;99.90
21565;DHT22;10943;48.738;9.320;2022-10-16T06:31:27;19.60;99.90
21565;DHT22;10943;48.738;9.320;2022-10-16T06:33:58;19.60;99.90
21565;DHT22;10943;48.738;9.320;2022-10-16T06:36:26;19.70;99.90
21565;DHT22;10943;48.738;9.320;2022-10-16T06:38:54;19.80;99.90
21565;DHT22;10943;48.738;9.320;2022-10-16T06:41:22;19.60;99.90
21565;DHT22;10943;48.738;9.320;2022-10-16T06:43:50;19.60;99.90
21565;DHT22;10943;48.738;9.320;2022-10-16T06:46:22;19.70;99.90
21565;DHT22;10943;48.738;9.320;2022-10-16T06:48:51;20.00;99.90
21565;DHT22;10943;48.738;9.320;2022-10-16T06:51:22;20.10;99.90
21565;DHT22;10943;48.738;9.320;2022-10-16T06:53:55;20.30;99.90
21565;DHT22;10943;48.738;9.320;2022-10-16T06:56:31;20.60;99.90
21565;DHT22;10943;48.738;9.320;2022-10-16T06:59:01;20.40;99.90
21565;DHT22;10943;48.738;9.320;2022-10-16T07:01:31;20.40;99.90
21565;DHT22;10943;48.738;9.320;2022-10-16T07:04:01;20.50;99.90
21565;DHT22;10943;48.738;9.320;2022-10-16T07:06:32;20.60;99.90
21565;DHT22;10943;48.738;9.320;2022-10-16T07:09:05;20.70;99.90
21565;DHT22;10943;48.738;9.320;2022-10-16T07:11:39;20.70;99.90
21565;DHT22;10943;48.738;9.320;2022-10-16T07:14:19;20.70;99.90
21565;DHT22;10943;48.738;9.320;2022-10-16T07:16:48;20.80;99.90
21565;DHT22;10943;48.738;9.320;2022-10-16T07:19:15;20.90;99.90
21565;DHT22;10943;48.738;9.320;2022-10-16T07:21:44;21.00;99.90
21565;DHT22;10943;48.738;9.320;2022-10-16T07:24:27;21.10;99.90
21565;DHT22;10943;48.738;9.320;2022-10-16T07:26:54;21.00;99.90
21565;DHT22;10943;48.738;9.320;2022-10-16T07:29:21;21.00;99.90
21565;DHT22;10943;48.738;9.320;2022-10-16T07:31:49;21.10;99.90
21565;DHT22;10943;48.738;9.320;2022-10-16T07:34:18;21.30;99.90
21565;DHT22;10943;48.738;9.320;2022-10-16T07:36:49;21.40;99.90
21565;DHT22;10943;48.738;9.320;2022-10-16T07:39:17;21.60;99.90
21565;DHT22;10943;48.738;9.320;2022-10-16T07:41:45;21.50;99.90
21565;DHT22;10943;48.738;9.320;2022-10-16T07:44:16;21.50;99.90
21565;DHT22;10943;48.738;9.320;2022-10-16T07:46:46;21.40;99.90
21565;DHT22;10943;48.738;9.320;2022-10-16T07:49:17;21.60;99.90
21565;DHT22;10943;48.738;9.320;2022-10-16T07:51:44;21.50;99.90
21565;DHT22;10943;48.738;9.320;2022-10-16T07:54:12;21.60;99.90
21565;DHT22;10943;48.738;9.320;2022-10-16T07:56:39;21.70;99.90
21565;DHT22;10943;48.738;9.320;2022-10-16T07:59:10;21.70;99.90
21565;DHT22;10943;48.738;9.320;2022-10-16T08:01:37;21.40;99.90
21565;DHT22;10943;48.738;9.320;2022-10-16T08:04:05;21.40;99.90
21565;DHT22;10943;48.738;9.320;2022-10-16T08:06:36;21.50;99.90
21565;DHT22;10943;48.738;9.320;2022-10-16T08:09:06;21.80;99.90
21565;DHT22;10943;48.738;9.320;2022-10-16T08:11:34;22.10;99.90
21565;DHT22;10943;48.738;9.320;2022-10-16T08:14:02;22.40;99.90
21565;DHT22;10943;48.738;9.320;2022-10-16T08:16:29;22.20;99.90
21565;DHT22;10943;48.738;9.320;2022-10-16T08:18:56;22.20;99.90
21565;DHT22;10943;48.738;9.320;2022-10-16T08:21:24;22.40;99.90
21565;DHT22;10943;48.738;9.320;2022-10-16T08:23:53;22.30;99.90
21565;DHT22;10943;48.738;9.320;2022-10-16T08:26:25;22.50;99.90
21565;DHT22;10943;48.738;9.320;2022-10-16T08:28:55;22.70;99.90
21565;DHT22;10943;48.738;9.320;2022-10-16T08:31:23;23.00;99.90
21565;DHT22;10943;48.738;9.320;2022-10-16T08:33:51;23.40;99.90
21565;DHT22;10943;48.738;9.320;2022-10-16T08:36:22;23.80;99.90
21565;DHT22;10943;48.738;9.320;2022-10-16T08:38:52;24.70;99.90
21565;DHT22;10943;48.738;9.320;2022-10-16T08:45:27;26.40;99.90
21565;DHT22;10943;48.738;9.320;2022-10-16T08:47:48;26.50;99.90
21565;DHT22;10943;48.738;9.320;2022-10-16T08:50:30;27.90;99.90
21565;DHT22;10943;48.738;9.320;2022-10-16T08:53:00;28.20;99.90
21565;DHT22;10943;48.738;9.320;2022-10-16T08:55:37;27.80;99.90
21565;DHT22;10943;48.738;9.320;2022-10-16T08:58:17;27.50;99.90
21565;DHT22;10943;48.738;9.320;2022-10-16T09:00:54;27.20;99.90
21565;DHT22;10943;48.738;9.320;2022-10-16T09:10:00;26.40;99.90
21565;DHT22;10943;48.738;9.320;2022-10-16T09:13:03;25.90;99.90
21565;DHT22;10943;48.738;9.320;2022-10-16T09:16:18;25.90;99.90
21565;DHT22;10943;48.738;9.320;2022-10-16T09:24:27;28.00;99.90
21565;DHT22;10943;48.738;9.320;2022-10-16T09:27:00;27.80;99.90
21565;DHT22;10943;48.738;9.320;2022-10-16T09:29:38;27.90;99.90
21565;DHT22;10943;48.738;9.320;2022-10-16T09:32:12;28.00;99.90
21565;DHT22;10943;48.738;9.320;2022-10-16T09:34:50;28.10;99.90
21565;DHT22;10943;48.738;9.320;2022-10-16T09:37:37;28.70;99.90
21565;DHT22;10943;48.738;9.320;2022-10-16T09:40:13;29.10;99.90
21565;DHT22;10943;48.738;9.320;2022-10-16T09:43:27;29.40;99.90
21565;DHT22;10943;48.738;9.320;2022-10-16T09:46:25;29.00;99.90
21565;DHT22;10943;48.738;9.320;2022-10-16T09:49:01;28.80;99.90
21565;DHT22;10943;48.738;9.320;2022-10-16T09:51:35;29.90;99.90
21565;DHT22;10943;48.738;9.320;2022-10-16T09:54:20;30.20;99.90
21565;DHT22;10943;48.738;9.320;2022-10-16T09:56:49;30.60;99.90
21565;DHT22;10943;48.738;9.320;2022-10-16T09:59:21;30.20;99.90
21565;DHT22;10943;48.738;9.320;2022-10-16T10:02:00;30.20;99.90
21565;DHT22;10943;48.738;9.320;2022-10-16T10:04:48;30.60;99.90
21565;DHT22;10943;48.738;9.320;2022-10-16T10:07:26;31.00;99.90
21565;DHT22;10943;48.738;9.320;2022-10-16T10:10:04;31.60;99.90
21565;DHT22;10943;48.738;9.320;2022-10-16T10:12:40;33.90;99.90
21565;DHT22;10943;48.738;9.320;2022-10-16T10:15:16;34.80;99.90
21565;DHT22;10943;48.738;9.320;2022-10-16T10:17:53;35.50;99.90
21565;DHT22;10943;48.738;9.320;2022-10-16T10:20:32;36.90;99.90
21565;DHT22;10943;48.738;9.320;2022-10-16T10:23:26;37.10;97.70
21565;DHT22;10943;48.738;9.320;2022-10-16T10:32:48;33.80;99.80
21565;DHT22;10943;48.738;9.320;2022-10-16T10:39:22;34.20;99.60
21565;DHT22;10943;48.738;9.320;2022-10-16T10:45:43;35.20;97.60
21565;DHT22;10943;48.738;9.320;2022-10-16T11:17:11;36.90;91.00
21565;DHT22;10943;48.738;9.320;2022-10-16T11:21:04;38.30;90.20
21565;DHT22;10943;48.738;9.320;2022-10-16T11:24:42;39.90;86.40
21565;DHT22;10943;48.738;9.320;2022-10-16T11:27:52;40.00;84.10
21565;DHT22;10943;48.738;9.320;2022-10-16T11:30:39;40.40;83.60
21565;DHT22;10943;48.738;9.320;2022-10-16T11:42:34;37.90;86.20
21565;DHT22;10943;48.738;9.320;2022-10-16T11:56:50;37.80;84.70
21565;DHT22;10943;48.738;9.320;2022-10-16T12:00:47;36.30;85.90
21565;DHT22;10943;48.738;9.320;2022-10-16T12:04:45;35.70;87.60
21565;DHT22;10943;48.738;9.320;2022-10-16T12:08:43;36.30;86.90
21565;DHT22;10943;48.738;9.320;2022-10-16T12:16:37;38.40;82.00
21565;DHT22;10943;48.738;9.320;2022-10-16T12:23:02;39.00;77.70
21565;DHT22;10943;48.738;9.320;2022-10-16T12:26:39;39.80;79.00
21565;DHT22;10943;48.738;9.320;2022-10-16T12:29:58;39.70;76.50
21565;DHT22;10943;48.738;9.320;2022-10-16T12:33:42;39.30;76.30
21565;DHT22;10943;48.738;9.320;2022-10-16T12:47:02;35.50;84.00
21565;DHT22;10943;48.738;9.320;2022-10-16T12:50:01;34.50;85.00
21565;DHT22;10943;48.738;9.320;2022-10-16T12:52:40;33.80;86.00
21565;DHT22;10943;48.738;9.320;2022-10-16T13:19:08;30.70;92.30
21565;DHT22;10943;48.738;9.320;2022-10-16T13:26:08;30.50;92.90
21565;DHT22;10943;48.738;9.320;2022-10-16T13:28:15;30.80;92.40
21565;DHT22;10943;48.738;9.320;2022-10-16T13:31:05;30.60;92.60
21565;DHT22;10943;48.738;9.320;2022-10-16T13:34:14;30.70;92.50
21565;DHT22;10943;48.738;9.320;2022-10-16T13:37:17;30.60;92.50
21565;DHT22;10943;48.738;9.320;2022-10-16T13:40:56;30.70;91.80
21565;DHT22;10943;48.738;9.320;2022-10-16T13:44:05;30.60;91.70
21565;DHT22;10943;48.738;9.320;2022-10-16T13:47:20;30.70;91.90
21565;DHT22;10943;48.738;9.320;2022-10-16T13:50:13;30.80;92.40
21565;DHT22;10943;48.738;9.320;2022-10-16T13:52:46;30.80;92.90
21565;DHT22;10943;48.738;9.320;2022-10-16T13:55:18;30.70;92.60
21565;DHT22;10943;48.738;9.320;2022-10-16T13:58:12;30.60;92.70
21565;DHT22;10943;48.738;9.320;2022-10-16T14:01:03;30.70;93.10
21565;DHT22;10943;48.738;9.320;2022-10-16T14:03:48;30.60;93.30
21565;DHT22;10943;48.738;9.320;2022-10-16T14:06:49;30.60;93.10
21565;DHT22;10943;48.738;9.320;2022-10-16T14:10:23;30.50;92.20
21565;DHT22;10943;48.738;9.320;2022-10-16T14:14:19;30.30;92.50
21565;DHT22;10943;48.738;9.320;2022-10-16T14:17:03;29.90;92.50
21565;DHT22;10943;48.738;9.320;2022-10-16T14:20:04;29.70;93.30
21565;DHT22;10943;48.738;9.320;2022-10-16T14:31:26;29.70;92.90
21565;DHT22;10943;48.738;9.320;2022-10-16T14:34:52;29.80;95.10
21565;DHT22;10943;48.738;9.320;2022-10-16T14:39:24;29.90;95.40
21565;DHT22;10943;48.738;9.320;2022-10-16T14:46:28;30.10;95.70
21565;DHT22;10943;48.738;9.320;2022-10-16T14:49:40;30.10;95.90
21565;DHT22;10943;48.738;9.320;2022-10-16T14:52:45;30.10;96.20
21565;DHT22;10943;48.738;9.320;2022-10-16T14:55:37;30.00;96.40
21565;DHT22;10943;48.738;9.320;2022-10-16T15:02:53;30.00;96.80
21565;DHT22;10943;48.738;9.320;2022-10-16T15:05:36;30.00;97.80
21565;DHT22;10943;48.738;9.320;2022-10-16T15:11:13;29.90;97.00
21565;DHT22;10943;48.738;9.320;2022-10-16T15:13:46;29.80;97.10
21565;DHT22;10943;48.738;9.320;2022-10-16T15:16:16;29.60;96.90
21565;DHT22;10943;48.738;9.320;2022-10-16T15:18:47;29.60;97.60
21565;DHT22;10943;48.738;9.320;2022-10-16T15:21:35;29.50;97.50
21565;DHT22;10943;48.738;9.320;2022-10-16T15:24:09;29.40;99.00
21565;DHT22;10943;48.738;9.320;2022-10-16T15:26:49;29.20;99.40
21565;DHT22;10943;48.738;9.320;2022-10-16T15:29:17;29.00;99.60
21565;DHT22;10943;48.738;9.320;2022-10-16T15:31:48;28.90;99.90
21565;DHT22;10943;48.738;9.320;2022-10-16T15:34:16;28.80;99.90
21565;DHT22;10943;48.738;9.320;2022-10-16T15:36:58;28.90;99.50
21565;DHT22;10943;48.738;9.320;2022-10-16T15:39:30;28.80;99.90
21565;DHT22;10943;48.738;9.320;2022-10-16T15:41:58;28.60;99.90
21565;DHT22;10943;48.738;9.320;2022-10-16T15:44:29;28.40;99.90
21565;DHT22;10943;48.738;9.320;2022-10-16T15:46:58;28.30;99.90
21565;DHT22;10943;48.738;9.320;2022-10-16T15:49:25;28.20;99.90
21565;DHT22;10943;48.738;9.320;2022-10-16T15:52:00;28.00;99.90
21565;DHT22;10943;48.738;9.320;2022-10-16T15:54:31;27.90;99.90
21565;DHT22;10943;48.738;9.320;2022-10-16T15:56:58;27.80;99.90
21565;DHT22;10943;48.738;9.320;2022-10-16T15:59:27;27.60;99.90
21565;DHT22;10943;48.738;9.320;2022-10-16T16:02:05;27.30;99.90
21565;DHT22;10943;48.738;9.320;2022-10-16T16:04:33;27.10;99.90
21565;DHT22;10943;48.738;9.320;2022-10-16T16:07:11;27.00;99.90
21565;DHT22;10943;48.738;9.320;2022-10-16T16:09:39;26.80;99.90
21565;DHT22;10943;48.738;9.320;2022-10-16T16:12:09;26.60;99.90
21565;DHT22;10943;48.738;9.320;2022-10-16T16:14:40;26.40;99.90
21565;DHT22;10943;48.738;9.320;2022-10-16T16:17:09;26.20;99.90
21565;DHT22;10943;48.738;9.320;2022-10-16T16:19:37;26.10;99.90
21565;DHT22;10943;48.738;9.320;2022-10-16T16:22:05;25.90;99.90
21565;DHT22;10943;48.738;9.320;2022-10-16T16:24:38;25.80;99.90
21565;DHT22;10943;48.738;9.320;2022-10-16T16:27:06;25.60;99.90
21565;DHT22;10943;48.738;9.320;2022-10-16T16:29:35;25.50;99.90
21565;DHT22;10943;48.738;9.320;2022-10-16T16:32:06;25.40;99.90
21565;DHT22;10943;48.738;9.320;2022-10-16T16:34:36;25.20;99.90
21565;DHT22;10943;48.738;9.320;2022-10-16T16:37:03;25.10;99.90
21565;DHT22;10943;48.738;9.320;2022-10-16T16:39:32;25.00;99.90
21565;DHT22;10943;48.738;9.320;2022-10-16T16:41:59;24.90;99.90
21565;DHT22;10943;48.738;9.320;2022-10-16T16:44:29;24.70;99.90
21565;DHT22;10943;48.738;9.320;2022-10-16T16:46:57;24.70;99.90
21565;DHT22;10943;48.738;9.320;2022-10-16T16:49:25;24.50;99.90
21565;DHT22;10943;48.738;9.320;2022-10-16T16:52:19;24.30;99.90
21565;DHT22;10943;48.738;9.320;2022-10-16T16:54:51;24.10;99.90
21565;DHT22;10943;48.738;9.320;2022-10-16T16:57:33;24.00;99.90
21565;DHT22;10943;48.738;9.320;2022-10-16T17:00:04;23.80;99.90
21565;DHT22;10943;48.738;9.320;2022-10-16T17:02:41;23.70;99.90
21565;DHT22;10943;48.738;9.320;2022-10-16T17:05:25;23.80;99.90
21565;DHT22;10943;48.738;9.320;2022-10-16T17:08:25;23.90;99.90
21565;DHT22;10943;48.738;9.320;2022-10-16T17:11:25;23.80;99.90
21565;DHT22;10943;48.738;9.320;2022-10-16T17:14:19;23.80;99.90
21565;DHT22;10943;48.738;9.320;2022-10-16T17:17:09;23.80;99.90
21565;DHT22;10943;48.738;9.320;2022-10-16T17:19:49;23.70;99.90
21565;DHT22;10943;48.738;9.320;2022-10-16T17:22:22;23.50;99.90
21565;DHT22;10943;48.738;9.320;2022-10-16T17:25:20;23.40;99.90
21565;DHT22;10943;48.738;9.320;2022-10-16T17:28:07;23.30;99.90
21565;DHT22;10943;48.738;9.320;2022-10-16T17:31:15;23.30;99.90
21565;DHT22;10943;48.738;9.320;2022-10-16T17:34:03;23.10;99.90
21565;DHT22;10943;48.738;9.320;2022-10-16T17:37:00;22.90;99.90
21565;DHT22;10943;48.738;9.320;2022-10-16T17:39:52;22.70;99.90
21565;DHT22;10943;48.738;9.320;2022-10-16T17:42:20;22.70;99.90
21565;DHT22;10943;48.738;9.320;2022-10-16T17:44:52;22.70;99.90
21565;DHT22;10943;48.738;9.320;2022-10-16T17:47:54;22.70;99.90
21565;DHT22;10943;48.738;9.320;2022-10-16T17:50:46;22.50;99.90
21565;DHT22;10943;48.738;9.320;2022-10-16T17:53:47;22.50;99.90
21565;DHT22;10943;48.738;9.320;2022-10-16T17:56:58;22.40;99.90
21565;DHT22;10943;48.738;9.320;2022-10-16T17:59:45;22.20;99.90
21565;DHT22;10943;48.738;9.320;2022-10-16T18:02:14;22.10;99.90
21565;DHT22;10943;48.738;9.320;2022-10-16T18:05:25;22.10;99.90
21565;DHT22;10943;48.738;9.320;2022-10-16T18:08:06;22.00;99.90
21565;DHT22;10943;48.738;9.320;2022-10-16T18:10:45;21.80;99.90
21565;DHT22;10943;48.738;9.320;2022-10-16T18:13:33;21.70;99.90
21565;DHT22;10943;48.738;9.320;2022-10-16T18:16:07;21.70;99.90
21565;DHT22;10943;48.738;9.320;2022-10-16T18:18:39;21.70;99.90
21565;DHT22;10943;48.738;9.320;2022-10-16T18:21:45;21.60;99.90
21565;DHT22;10943;48.738;9.320;2022-10-16T18:24:31;21.40;99.90
21565;DHT22;10943;48.738;9.320;2022-10-16T18:27:00;21.50;99.90
21565;DHT22;10943;48.738;9.320;2022-10-16T18:29:29;21.40;99.90
21565;DHT22;10943;48.738;9.320;2022-10-16T18:32:05;21.10;99.90
21565;DHT22;10943;48.738;9.320;2022-10-16T18:34:58;21.00;99.90
21565;DHT22;10943;48.738;9.320;2022-10-16T18:37:27;20.90;99.90
21565;DHT22;10943;48.738;9.320;2022-10-16T18:40:10;20.90;99.90
21565;DHT22;10943;48.738;9.320;2022-10-16T18:46:16;20.90;99.90
21565;DHT22;10943;48.738;9.320;2022-10-16T18:48:56;20.70;99.90
21565;DHT22;10943;48.738;9.320;2022-10-16T18:52:17;20.60;99.90
21565;DHT22;10943;48.738;9.320;2022-10-16T18:58:42;20.40;99.90
21565;DHT22;10943;48.738;9.320;2022-10-16T19:04:53;20.40;99.90
21565;DHT22;10943;48.738;9.320;2022-10-16T19:07:24;20.30;99.90
21565;DHT22;10943;48.738;9.320;2022-10-16T19:10:08;20.20;99.90
21565;DHT22;10943;48.738;9.320;2022-10-16T19:12:49;20.10;99.90
21565;DHT22;10943;48.738;9.320;2022-10-16T19:15:31;20.00;99.90
21565;DHT22;10943;48.738;9.320;2022-10-16T19:17:59;19.90;99.90
21565;DHT22;10943;48.738;9.320;2022-10-16T19:20:27;19.80;99.90
21565;DHT22;10943;48.738;9.320;2022-10-16T19:22:55;19.80;99.90
21565;DHT22;10943;48.738;9.320;2022-10-16T19:25:25;19.80;99.90
21565;DHT22;10943;48.738;9.320;2022-10-16T19:27:54;19.90;99.90
21565;DHT22;10943;48.738;9.320;2022-10-16T19:30:22;19.90;99.90
21565;DHT22;10943;48.738;9.320;2022-10-16T19:33:00;19.80;99.90
21565;DHT22;10943;48.738;9.320;2022-10-16T19:35:33;19.70;99.90